Time;durP1;ratioP1;P1;durP2;ratioP2;P2;SDS_P1;SDS_P2;PMS_P1;PMS_P2;Temp;Humidity;BMP_temperature;BMP_pressure;BME280_temperature;BME280_humidity;BME280_pressure;Samples;Min_cycle;Max_cycle;Signal;HPM_P1;HPM_P2
2023/01/22 00:01:28;;;;;;;25.00;11.30;;;;;;;;;;5053692;28;20215;-70
2023/01/22 00:03:54;;;;;;;20.67;11.55;;;;;;;;;;5054521;28;20486;-70
2023/01/22 00:06:20;;;;;;;24.58;11.13;;;;;;;;;;5053759;28;20033;-71
2023/01/22 00:08:47;;;;;;;21.05;10.95;;;;;;;;;;5052530;28;20041;-71
2023/01/22 00:11:13;;;;;;;20.02;11.27;;;;;;;;;;5058765;28;20111;-71
2023/01/22 00:13:40;;;;;;;18.83;10.05;;;;;;;;;;5065053;28;20036;-71
2023/01/22 00:16:06;;;;;;;21.98;11.82;;;;;;;;;;5053428;28;20033;-71
2023/01/22 00:18:32;;;;;;;21.30;11.07;;;;;;;;;;5046240;28;20037;-71
2023/01/22 00:20:58;;;;;;;22.48;11.50;;;;;;;;;;5042449;28;20398;-71
2023/01/22 00:23:24;;;;;;;22.35;11.73;;;;;;;;;;5057372;28;20078;-71
2023/01/22 00:25:59;;;;;;;21.73;10.75;;;;;;;;;;5063652;28;20538;-71
2023/01/22 00:28:25;;;;;;;20.92;11.75;;;;;;;;;;5058055;28;20056;-71
2023/01/22 00:30:58;;;;;;;22.25;12.02;;;;;;;;;;5053756;28;20040;-71
2023/01/22 00:33:24;;;;;;;24.67;11.80;;;;;;;;;;5052310;28;20036;-70
2023/01/22 00:35:50;;;;;;;21.88;11.63;;;;;;;;;;5055900;28;20048;-70
2023/01/22 00:38:16;;;;;;;22.98;11.40;;;;;;;;;;5052260;28;20187;-71
2023/01/22 00:40:42;;;;;;;21.38;10.63;;;;;;;;;;5053576;28;20033;-70
2023/01/22 00:43:08;;;;;;;20.15;10.95;;;;;;;;;;5057966;28;20403;-71
2023/01/22 00:45:34;;;;;;;20.10;10.10;;;;;;;;;;5052470;28;20052;-71
2023/01/22 00:48:00;;;;;;;20.02;10.30;;;;;;;;;;5051335;28;20068;-71
2023/01/22 00:50:26;;;;;;;21.85;10.52;;;;;;;;;;5051608;28;20033;-70
2023/01/22 00:52:52;;;;;;;24.90;11.43;;;;;;;;;;5060663;28;20072;-71
2023/01/22 00:55:18;;;;;;;24.20;11.80;;;;;;;;;;5052291;28;20091;-70
2023/01/22 00:57:44;;;;;;;26.48;12.75;;;;;;;;;;5049996;28;20079;-71
2023/01/22 01:00:13;;;;;;;23.65;11.88;;;;;;;;;;5037057;28;20441;-71
2023/01/22 01:03:25;;;;;;;25.90;13.07;;;;;;;;;;5051004;28;20049;-71
2023/01/22 01:05:25;;;;;;;29.98;13.00;;;;;;;;;;5060707;28;20068;-71
2023/01/22 01:07:51;;;;;;;29.15;12.35;;;;;;;;;;5051353;28;20052;-71
2023/01/22 01:10:18;;;;;;;26.05;12.55;;;;;;;;;;5049521;28;20045;-71
2023/01/22 01:12:44;;;;;;;26.40;13.10;;;;;;;;;;5052407;28;20098;-71
2023/01/22 01:15:10;;;;;;;29.20;13.98;;;;;;;;;;5052994;28;20132;-71
2023/01/22 01:17:36;;;;;;;29.20;14.45;;;;;;;;;;5056050;28;20391;-71
2023/01/22 01:20:02;;;;;;;26.55;13.52;;;;;;;;;;5046796;28;20033;-71
2023/01/22 01:22:28;;;;;;;30.40;13.57;;;;;;;;;;5056838;28;20505;-71
2023/01/22 01:24:54;;;;;;;28.17;14.55;;;;;;;;;;5059607;28;20037;-71
2023/01/22 01:27:20;;;;;;;23.33;12.82;;;;;;;;;;5052407;28;20043;-71
2023/01/22 01:29:46;;;;;;;27.20;14.15;;;;;;;;;;5050756;28;20072;-71
2023/01/22 01:32:12;;;;;;;25.65;13.27;;;;;;;;;;5053165;28;20037;-71
2023/01/22 01:34:38;;;;;;;31.17;14.38;;;;;;;;;;5053278;28;20399;-71
2023/01/22 01:37:04;;;;;;;25.98;13.27;;;;;;;;;;5064877;28;20040;-71
2023/01/22 01:39:30;;;;;;;27.70;13.45;;;;;;;;;;5043351;28;20179;-71
2023/01/22 01:41:56;;;;;;;24.02;13.32;;;;;;;;;;5048400;28;20116;-71
2023/01/22 01:44:23;;;;;;;26.50;13.38;;;;;;;;;;5054354;28;20092;-71
2023/01/22 01:47:00;;;;;;;26.63;12.90;;;;;;;;;;5053956;28;20123;-71
2023/01/22 01:49:31;;;;;;;26.80;12.95;;;;;;;;;;5044065;28;20043;-71
2023/01/22 01:52:02;;;;;;;28.90;13.38;;;;;;;;;;5052150;28;20045;-70
2023/01/22 01:54:29;;;;;;;28.83;14.60;;;;;;;;;;5058297;28;20040;-71
2023/01/22 01:56:56;;;;;;;30.17;13.23;;;;;;;;;;5054750;28;20037;-70
2023/01/22 01:59:23;;;;;;;25.67;14.00;;;;;;;;;;5054987;28;20334;-71
2023/01/22 02:01:52;;;;;;;27.25;13.30;;;;;;;;;;5045777;28;20037;-71
2023/01/22 02:04:18;;;;;;;24.88;13.27;;;;;;;;;;5060813;28;20033;-70
2023/01/22 02:06:44;;;;;;;27.67;14.20;;;;;;;;;;5054076;28;20044;-71
2023/01/22 02:09:11;;;;;;;28.15;14.60;;;;;;;;;;5050032;28;20037;-70
2023/01/22 02:11:38;;;;;;;28.10;13.95;;;;;;;;;;5049156;28;20131;-70
2023/01/22 02:14:06;;;;;;;27.75;14.00;;;;;;;;;;5058188;28;20045;-70
2023/01/22 02:16:32;;;;;;;32.22;14.57;;;;;;;;;;5048795;28;20052;-71
2023/01/22 02:18:58;;;;;;;30.05;13.88;;;;;;;;;;5048529;28;20033;-70
2023/01/22 02:21:43;;;;;;;20.70;10.95;;;;;;;;;;5045624;28;20486;-70
2023/01/22 02:24:09;;;;;;;22.10;10.90;;;;;;;;;;5051246;28;20050;-70
2023/01/22 02:26:36;;;;;;;25.73;11.32;;;;;;;;;;5044939;28;20509;-71
2023/01/22 02:29:02;;;;;;;22.00;11.95;;;;;;;;;;5051377;28;20123;-71
2023/01/22 02:31:28;;;;;;;22.63;12.00;;;;;;;;;;5042169;28;20098;-70
2023/01/22 02:33:54;;;;;;;25.48;12.20;;;;;;;;;;5046058;28;20037;-71
2023/01/22 02:36:20;;;;;;;22.50;12.27;;;;;;;;;;5052517;28;21803;-71
2023/01/22 02:38:46;;;;;;;24.05;11.40;;;;;;;;;;5048050;28;20036;-71
2023/01/22 02:41:13;;;;;;;17.50;9.88;;;;;;;;;;5049441;28;20040;-70
2023/01/22 02:43:39;;;;;;;15.13;8.45;;;;;;;;;;5051872;28;20052;-71
2023/01/22 02:46:05;;;;;;;17.05;8.73;;;;;;;;;;5052601;28;20037;-71
2023/01/22 02:48:32;;;;;;;15.38;9.23;;;;;;;;;;5051047;28;20037;-70
2023/01/22 02:50:58;;;;;;;17.42;7.28;;;;;;;;;;5042632;28;20122;-70
2023/01/22 02:53:23;;;;;;;15.63;8.50;;;;;;;;;;5050315;28;20064;-71
2023/01/22 02:55:49;;;;;;;15.38;8.82;;;;;;;;;;5056587;28;20050;-71
2023/01/22 02:58:16;;;;;;;16.58;8.65;;;;;;;;;;5051508;28;20061;-71
2023/01/22 03:00:42;;;;;;;15.18;8.60;;;;;;;;;;5044261;28;20037;-70
2023/01/22 03:03:14;;;;;;;13.90;8.13;;;;;;;;;;5051141;28;20047;-71
2023/01/22 03:05:44;;;;;;;13.85;8.45;;;;;;;;;;5048834;28;20041;-72
2023/01/22 03:08:10;;;;;;;14.60;8.77;;;;;;;;;;5134134;22;20100;-65
2023/01/22 03:10:36;;;;;;;13.23;7.93;;;;;;;;;;5131363;27;20035;-65
2023/01/22 03:21:17;;;;;;;19.40;8.73;;;;;;;;;;5100236;28;20047;-63
2023/01/22 03:23:47;;;;;;;10.18;6.22;;;;;;;;;;5114503;28;20169;-63
2023/01/22 03:26:13;;;;;;;13.85;6.90;;;;;;;;;;5103171;28;20101;-63
2023/01/22 03:28:39;;;;;;;8.80;5.57;;;;;;;;;;5102569;28;20046;-63
2023/01/22 03:31:06;;;;;;;10.70;6.10;;;;;;;;;;5107595;28;20123;-63
2023/01/22 03:33:32;;;;;;;14.10;7.00;;;;;;;;;;5114110;28;20048;-63
2023/01/22 03:35:59;;;;;;;9.25;5.97;;;;;;;;;;5100455;28;20043;-64
2023/01/22 03:38:25;;;;;;;13.40;7.50;;;;;;;;;;5108862;28;20077;-64
2023/01/22 03:40:51;;;;;;;14.02;7.63;;;;;;;;;;5104560;28;20119;-64
2023/01/22 03:43:17;;;;;;;12.90;6.90;;;;;;;;;;5099465;28;20497;-64
2023/01/22 03:45:43;;;;;;;11.05;6.15;;;;;;;;;;5110951;28;20067;-64
2023/01/22 03:48:09;;;;;;;11.63;5.88;;;;;;;;;;5112003;28;20077;-64
2023/01/22 03:50:35;;;;;;;10.15;6.53;;;;;;;;;;5102491;28;20118;-64
2023/01/22 03:53:02;;;;;;;13.38;6.45;;;;;;;;;;5114747;28;20044;-64
2023/01/22 03:55:29;;;;;;;8.90;5.75;;;;;;;;;;5107901;28;20055;-64
2023/01/22 03:57:55;;;;;;;11.50;5.82;;;;;;;;;;5095510;28;20500;-64
2023/01/22 04:00:21;;;;;;;9.95;6.35;;;;;;;;;;5108926;28;20060;-64
2023/01/22 04:02:48;;;;;;;9.25;6.20;;;;;;;;;;5112993;28;20061;-64
2023/01/22 04:05:14;;;;;;;12.48;7.28;;;;;;;;;;5104280;28;20047;-64
2023/01/22 04:07:40;;;;;;;11.57;7.18;;;;;;;;;;5113257;28;20509;-64
2023/01/22 04:10:06;;;;;;;10.88;7.05;;;;;;;;;;5105985;28;20043;-64
2023/01/22 04:12:32;;;;;;;9.10;5.78;;;;;;;;;;5096343;28;20040;-65
2023/01/22 04:14:58;;;;;;;11.52;6.10;;;;;;;;;;5110482;28;20482;-64
2023/01/22 04:17:24;;;;;;;11.38;5.82;;;;;;;;;;5099789;28;20113;-64
2023/01/22 04:19:50;;;;;;;13.27;7.35;;;;;;;;;;5103733;28;20047;-64
2023/01/22 04:22:16;;;;;;;9.35;6.18;;;;;;;;;;5106857;28;20036;-64
2023/01/22 04:24:42;;;;;;;9.32;6.38;;;;;;;;;;5108455;28;20088;-65
2023/01/22 04:27:08;;;;;;;11.52;8.00;;;;;;;;;;5104206;27;20061;-65
2023/01/22 04:29:34;;;;;;;14.65;7.25;;;;;;;;;;5098916;28;20051;-65
2023/01/22 04:32:00;;;;;;;14.43;5.72;;;;;;;;;;5111906;28;20270;-65
2023/01/22 04:34:26;;;;;;;11.27;7.20;;;;;;;;;;5102271;28;20067;-65
2023/01/22 04:36:52;;;;;;;10.43;6.00;;;;;;;;;;5107434;28;20428;-65
2023/01/22 04:39:18;;;;;;;9.95;7.10;;;;;;;;;;5104671;27;20032;-65
2023/01/22 04:41:44;;;;;;;11.20;5.85;;;;;;;;;;5109055;28;20550;-65
2023/01/22 04:44:10;;;;;;;11.23;6.60;;;;;;;;;;5108768;28;20070;-65
2023/01/22 04:46:36;;;;;;;9.85;6.32;;;;;;;;;;5108352;28;20485;-65
2023/01/22 04:49:02;;;;;;;11.43;6.65;;;;;;;;;;5110567;28;20023;-65
2023/01/22 04:51:28;;;;;;;9.07;6.85;;;;;;;;;;5110396;28;20035;-64
2023/01/22 04:53:54;;;;;;;8.80;6.20;;;;;;;;;;5102300;28;20379;-64
2023/01/22 04:56:20;;;;;;;9.07;6.65;;;;;;;;;;5104470;28;20044;-64
2023/01/22 04:58:46;;;;;;;10.10;7.65;;;;;;;;;;5103225;28;20417;-65
2023/01/22 05:01:12;;;;;;;8.77;6.13;;;;;;;;;;5105919;28;20097;-64
2023/01/22 05:03:38;;;;;;;9.73;6.93;;;;;;;;;;5098269;28;20481;-64
2023/01/22 05:06:04;;;;;;;10.30;7.00;;;;;;;;;;5111083;28;20040;-64
2023/01/22 05:08:30;;;;;;;7.75;6.40;;;;;;;;;;5101808;28;20078;-64
2023/01/22 05:10:59;;;;;;;11.25;6.15;;;;;;;;;;5095271;28;20047;-64
2023/01/22 05:13:25;;;;;;;11.05;6.10;;;;;;;;;;5105098;28;20043;-64
2023/01/22 05:15:51;;;;;;;9.65;6.50;;;;;;;;;;5100111;28;20043;-64
2023/01/22 05:18:17;;;;;;;8.15;6.43;;;;;;;;;;5102769;28;20036;-64
2023/01/22 05:20:43;;;;;;;12.52;7.55;;;;;;;;;;5102957;28;20132;-64
2023/01/22 05:23:09;;;;;;;11.70;7.40;;;;;;;;;;5104030;28;20063;-64
2023/01/22 05:25:35;;;;;;;10.57;6.60;;;;;;;;;;5106713;28;20034;-64
2023/01/22 05:28:01;;;;;;;8.60;6.47;;;;;;;;;;5101316;28;20042;-64
2023/01/22 05:30:27;;;;;;;7.60;6.78;;;;;;;;;;5096378;28;20071;-64
2023/01/22 05:32:57;;;;;;;9.25;7.15;;;;;;;;;;5112081;28;20130;-64
2023/01/22 05:35:23;;;;;;;8.93;7.05;;;;;;;;;;5104998;28;20036;-64
2023/01/22 05:37:49;;;;;;;9.20;7.07;;;;;;;;;;5109247;28;20044;-64
2023/01/22 05:40:15;;;;;;;9.55;7.43;;;;;;;;;;5101149;27;20509;-64
2023/01/22 05:42:41;;;;;;;10.93;8.43;;;;;;;;;;5099916;28;20070;-64
2023/01/22 05:45:08;;;;;;;12.30;6.53;;;;;;;;;;5102695;28;20422;-64
2023/01/22 05:47:34;;;;;;;9.88;7.40;;;;;;;;;;5104488;28;20039;-65
2023/01/22 05:50:00;;;;;;;11.40;7.30;;;;;;;;;;5100173;28;20059;-64
2023/01/22 05:52:27;;;;;;;10.82;6.97;;;;;;;;;;5106267;28;20078;-64
2023/01/22 05:54:53;;;;;;;9.27;6.72;;;;;;;;;;5108098;28;20047;-64
2023/01/22 05:57:19;;;;;;;8.65;6.32;;;;;;;;;;5109349;28;20042;-64
2023/01/22 05:59:45;;;;;;;10.00;7.25;;;;;;;;;;5101594;28;20398;-64
2023/01/22 06:02:11;;;;;;;12.90;7.45;;;;;;;;;;5099288;28;20158;-63
2023/01/22 06:04:37;;;;;;;9.77;6.57;;;;;;;;;;5107452;28;20114;-64
2023/01/22 06:07:03;;;;;;;9.85;7.20;;;;;;;;;;5102831;28;20044;-63
2023/01/22 06:09:29;;;;;;;9.23;7.20;;;;;;;;;;5110028;28;20042;-63
2023/01/22 06:11:55;;;;;;;9.80;7.45;;;;;;;;;;5106181;28;20047;-63
2023/01/22 06:14:21;;;;;;;8.13;6.97;;;;;;;;;;5109063;28;20038;-64
2023/01/22 06:16:47;;;;;;;11.68;7.25;;;;;;;;;;5101996;28;20032;-64
2023/01/22 06:19:13;;;;;;;30.10;9.27;;;;;;;;;;5102870;28;20036;-63
2023/01/22 06:21:39;;;;;;;8.57;6.45;;;;;;;;;;5099212;28;20405;-63
2023/01/22 06:24:05;;;;;;;10.98;7.25;;;;;;;;;;5105037;28;20034;-64
2023/01/22 06:26:31;;;;;;;11.35;7.20;;;;;;;;;;5107979;28;20078;-64
2023/01/22 06:28:57;;;;;;;11.57;7.38;;;;;;;;;;5108068;28;20760;-64
2023/01/22 06:31:23;;;;;;;7.68;6.25;;;;;;;;;;5091669;28;20040;-64
2023/01/22 06:33:49;;;;;;;10.68;7.45;;;;;;;;;;5106726;28;20183;-64
2023/01/22 06:36:15;;;;;;;10.20;6.68;;;;;;;;;;5110878;27;20041;-64
2023/01/22 06:38:41;;;;;;;10.10;6.90;;;;;;;;;;5107752;28;20365;-64
2023/01/22 06:41:07;;;;;;;7.85;6.25;;;;;;;;;;5095862;28;20031;-64
2023/01/22 06:43:33;;;;;;;9.25;6.57;;;;;;;;;;5108071;28;20416;-64
2023/01/22 06:45:59;;;;;;;10.13;7.40;;;;;;;;;;5099876;28;20032;-64
2023/01/22 06:48:25;;;;;;;9.13;6.32;;;;;;;;;;5098225;28;20523;-64
2023/01/22 06:50:56;;;;;;;10.35;7.00;;;;;;;;;;5102970;28;20071;-64
2023/01/22 06:53:22;;;;;;;12.20;7.43;;;;;;;;;;5092640;28;20044;-64
2023/01/22 06:55:48;;;;;;;9.10;7.20;;;;;;;;;;5100657;28;20309;-64
2023/01/22 06:58:14;;;;;;;10.82;7.00;;;;;;;;;;5105062;28;20044;-64
2023/01/22 07:00:40;;;;;;;12.52;7.65;;;;;;;;;;5098939;28;20417;-64
2023/01/22 07:03:06;;;;;;;11.25;7.63;;;;;;;;;;5096849;28;20036;-64
2023/01/22 07:05:33;;;;;;;9.13;6.53;;;;;;;;;;5098111;28;20051;-64
2023/01/22 07:08:00;;;;;;;9.25;7.03;;;;;;;;;;5099815;28;20043;-64
2023/01/22 07:10:26;;;;;;;10.90;7.25;;;;;;;;;;5102821;28;20039;-64
2023/01/22 07:12:57;;;;;;;10.73;7.32;;;;;;;;;;5107851;28;20043;-64
2023/01/22 07:15:23;;;;;;;;;;;;;;;;;;5103487;28;20520;-64
2023/01/22 07:17:50;;;;;;;11.15;7.15;;;;;;;;;;5104328;28;19915;-64
2023/01/22 07:20:16;;;;;;;9.13;7.03;;;;;;;;;;5108558;28;20040;-64
2023/01/22 07:22:42;;;;;;;9.88;6.80;;;;;;;;;;5099760;28;20032;-64
2023/01/22 07:25:09;;;;;;;9.80;8.10;;;;;;;;;;5105996;28;20039;-64
2023/01/22 07:27:37;;;;;;;12.52;7.60;;;;;;;;;;5111146;28;20434;-64
2023/01/22 07:30:03;;;;;;;10.32;7.65;;;;;;;;;;5101726;28;20039;-64
2023/01/22 07:32:29;;;;;;;12.32;6.97;;;;;;;;;;5101462;28;20035;-65
2023/01/22 07:34:55;;;;;;;12.27;8.15;;;;;;;;;;5104537;28;20062;-65
2023/01/22 07:37:21;;;;;;;11.38;7.03;;;;;;;;;;5106400;28;20043;-65
2023/01/22 07:39:47;;;;;;;8.13;6.45;;;;;;;;;;5101014;28;20081;-64
2023/01/22 07:42:14;;;;;;;9.73;6.93;;;;;;;;;;5100398;28;20493;-65
2023/01/22 07:44:40;;;;;;;12.18;8.32;;;;;;;;;;5096036;28;20139;-65
2023/01/22 07:47:06;;;;;;;10.70;7.70;;;;;;;;;;5095845;28;20058;-65
2023/01/22 07:49:32;;;;;;;9.80;7.43;;;;;;;;;;5099758;28;20031;-64
2023/01/22 07:51:58;;;;;;;8.73;6.78;;;;;;;;;;5106568;28;20044;-65
2023/01/22 07:54:24;;;;;;;8.88;7.78;;;;;;;;;;5106259;28;20035;-65
2023/01/22 07:56:50;;;;;;;12.30;7.05;;;;;;;;;;5100902;28;20497;-65
2023/01/22 07:59:16;;;;;;;12.30;7.90;;;;;;;;;;5100413;28;20039;-65
2023/01/22 08:01:42;;;;;;;10.52;7.10;;;;;;;;;;5098689;28;20031;-66
2023/01/22 08:04:08;;;;;;;12.60;7.65;;;;;;;;;;5105597;28;20051;-64
2023/01/22 08:06:35;;;;;;;9.15;6.97;;;;;;;;;;5108009;28;20032;-64
2023/01/22 08:09:01;;;;;;;11.38;7.78;;;;;;;;;;5093055;28;20040;-65
2023/01/22 08:11:27;;;;;;;12.40;9.38;;;;;;;;;;5104480;28;20032;-65
2023/01/22 08:13:53;;;;;;;8.98;7.10;;;;;;;;;;5106297;28;20035;-65
2023/01/22 08:16:20;;;;;;;9.18;7.05;;;;;;;;;;5097902;28;20494;-64
2023/01/22 08:18:46;;;;;;;8.15;7.13;;;;;;;;;;5107391;28;20493;-64
2023/01/22 08:21:12;;;;;;;11.10;7.63;;;;;;;;;;5101295;28;20523;-65
2023/01/22 08:23:38;;;;;;;10.38;8.13;;;;;;;;;;5104428;28;20028;-65
2023/01/22 08:26:04;;;;;;;15.70;8.95;;;;;;;;;;5106848;28;20040;-65
2023/01/22 08:28:31;;;;;;;10.85;8.25;;;;;;;;;;5105019;28;20085;-65
2023/01/22 08:31:01;;;;;;;12.13;7.70;;;;;;;;;;5114666;28;20081;-65
2023/01/22 08:33:27;;;;;;;9.90;7.88;;;;;;;;;;5107603;28;20048;-64
2023/01/22 08:35:53;;;;;;;10.52;8.60;;;;;;;;;;5096889;28;20044;-64
2023/01/22 08:38:19;;;;;;;9.90;7.68;;;;;;;;;;5107110;28;20035;-65
2023/01/22 08:40:49;;;;;;;13.00;8.38;;;;;;;;;;5104080;28;20027;-65
2023/01/22 08:43:15;;;;;;;12.13;8.90;;;;;;;;;;5094189;28;20310;-65
2023/01/22 08:45:41;;;;;;;9.60;7.43;;;;;;;;;;5099606;28;20115;-65
2023/01/22 08:48:07;;;;;;;10.27;7.88;;;;;;;;;;5104411;28;20075;-65
2023/01/22 08:50:33;;;;;;;8.70;7.00;;;;;;;;;;5114268;28;20036;-65
2023/01/22 08:52:59;;;;;;;9.00;7.13;;;;;;;;;;5102180;28;20059;-65
2023/01/22 08:55:28;;;;;;;12.07;7.03;;;;;;;;;;5110002;28;20046;-65
2023/01/22 08:57:55;;;;;;;15.05;8.60;;;;;;;;;;5110180;28;20431;-65
2023/01/22 09:00:22;;;;;;;9.55;7.13;;;;;;;;;;5108112;28;20043;-65
2023/01/22 09:02:48;;;;;;;8.63;6.88;;;;;;;;;;5105924;28;20552;-65
2023/01/22 09:05:14;;;;;;;9.68;6.82;;;;;;;;;;5106181;28;20039;-65
2023/01/22 09:07:40;;;;;;;10.55;8.05;;;;;;;;;;5116207;22;20058;-64
2023/01/22 09:10:07;;;;;;;7.90;6.85;;;;;;;;;;5076021;28;20040;-64
2023/01/22 09:12:34;;;;;;;8.10;6.57;;;;;;;;;;5076051;28;20497;-64
2023/01/22 09:15:00;;;;;;;10.50;6.88;;;;;;;;;;5083567;28;20040;-64
2023/01/22 09:17:26;;;;;;;12.30;9.38;;;;;;;;;;5088902;28;20440;-64
2023/01/22 09:19:53;;;;;;;9.07;6.63;;;;;;;;;;5081761;28;20049;-64
2023/01/22 09:22:19;;;;;;;10.20;7.30;;;;;;;;;;5079120;28;20028;-64
2023/01/22 09:24:45;;;;;;;11.57;7.45;;;;;;;;;;5083154;28;20433;-64
2023/01/22 09:27:12;;;;;;;13.05;8.13;;;;;;;;;;5085124;28;20136;-64
2023/01/22 09:29:38;;;;;;;11.48;7.97;;;;;;;;;;5084807;28;20436;-64
2023/01/22 09:32:04;;;;;;;12.18;8.50;;;;;;;;;;5086351;28;20237;-64
2023/01/22 09:34:32;;;;;;;10.82;7.20;;;;;;;;;;5083870;28;20046;-65
2023/01/22 09:37:04;;;;;;;10.73;6.97;;;;;;;;;;5072611;28;20055;-64
2023/01/22 09:39:30;;;;;;;10.10;7.25;;;;;;;;;;5091456;28;20120;-65
2023/01/22 09:41:58;;;;;;;11.32;7.10;;;;;;;;;;5090902;28;20036;-64
2023/01/22 09:44:29;;;;;;;12.57;7.85;;;;;;;;;;5091611;28;20031;-64
2023/01/22 09:47:01;;;;;;;10.85;7.78;;;;;;;;;;5085976;28;20637;-64
2023/01/22 09:49:37;;;;;;;8.27;7.22;;;;;;;;;;5083011;28;20028;-64
2023/01/22 09:52:05;;;;;;;9.20;6.93;;;;;;;;;;5082296;28;20039;-64
2023/01/22 09:54:31;;;;;;;11.55;7.53;;;;;;;;;;5091776;28;20064;-65
2023/01/22 09:56:58;;;;;;;10.68;8.05;;;;;;;;;;5091394;28;20116;-65
2023/01/22 09:59:31;;;;;;;9.98;7.40;;;;;;;;;;5072620;28;20413;-64
2023/01/22 10:02:17;;;;;;;8.18;6.32;;;;;;;;;;5091072;28;20044;-65
2023/01/22 10:04:44;;;;;;;11.23;8.02;;;;;;;;;;5075238;28;20044;-65
2023/01/22 10:07:14;;;;;;;11.25;7.65;;;;;;;;;;5091737;28;20174;-66
2023/01/22 10:09:40;;;;;;;15.43;7.10;;;;;;;;;;5072093;28;20051;-66
2023/01/22 10:12:11;;;;;;;11.20;7.28;;;;;;;;;;5088564;28;20055;-65
2023/01/22 10:14:38;;;;;;;13.32;7.32;;;;;;;;;;5074866;28;20482;-65
2023/01/22 10:17:16;;;;;;;13.63;7.38;;;;;;;;;;5081941;28;20142;-65
2023/01/22 10:19:43;;;;;;;9.52;7.70;;;;;;;;;;5083988;28;20098;-65
2023/01/22 10:22:19;;;;;;;13.38;8.48;;;;;;;;;;5083223;28;20116;-65
2023/01/22 10:24:45;;;;;;;13.25;8.27;;;;;;;;;;5070327;28;20268;-65
2023/01/22 10:27:13;;;;;;;12.63;8.02;;;;;;;;;;5075131;28;20094;-65
2023/01/22 10:29:39;;;;;;;12.05;6.95;;;;;;;;;;5063029;28;20043;-65
2023/01/22 10:32:15;;;;;;;10.68;7.18;;;;;;;;;;5074196;28;20052;-65
2023/01/22 10:34:41;;;;;;;8.88;7.20;;;;;;;;;;5081881;28;20040;-65
2023/01/22 10:37:13;;;;;;;10.48;8.05;;;;;;;;;;5087271;28;20114;-65
2023/01/22 10:39:44;;;;;;;14.95;8.35;;;;;;;;;;5086217;28;20177;-65
2023/01/22 10:42:21;;;;;;;11.00;8.85;;;;;;;;;;5085633;28;20054;-65
2023/01/22 10:44:47;;;;;;;15.07;9.55;;;;;;;;;;5073493;28;20044;-66
2023/01/22 10:47:21;;;;;;;12.45;7.82;;;;;;;;;;5078361;28;20506;-65
2023/01/22 10:49:48;;;;;;;10.50;6.32;;;;;;;;;;5074351;28;20055;-65
2023/01/22 10:52:26;;;;;;;12.32;9.05;;;;;;;;;;5081205;28;20077;-65
2023/01/22 10:54:55;;;;;;;10.48;7.30;;;;;;;;;;5070253;28;20487;-65
2023/01/22 10:57:25;;;;;;;12.25;6.78;;;;;;;;;;5074186;28;20201;-65
2023/01/22 11:00:17;;;;;;;13.52;9.18;;;;;;;;;;5076916;28;20447;-65
2023/01/22 11:02:45;;;;;;;12.02;8.68;;;;;;;;;;5029301;28;20036;-65
2023/01/22 11:05:17;;;;;;;12.27;8.07;;;;;;;;;;5072378;28;20044;-65
2023/01/22 11:07:44;;;;;;;14.60;7.40;;;;;;;;;;5080991;28;20032;-65
2023/01/22 11:10:16;;;;;;;12.98;8.40;;;;;;;;;;5068726;28;20043;-65
2023/01/22 11:13:02;;;;;;;14.75;8.98;;;;;;;;;;5089022;28;20047;-65
2023/01/22 11:15:31;;;;;;;13.02;9.35;;;;;;;;;;5086294;28;20052;-64
2023/01/22 11:18:00;;;;;;;15.23;8.55;;;;;;;;;;5070099;28;20040;-66
2023/01/22 11:20:45;;;;;;;10.90;7.22;;;;;;;;;;5082285;28;20035;-65
2023/01/22 11:23:11;;;;;;;12.43;7.55;;;;;;;;;;5085749;28;20397;-65
2023/01/22 11:25:56;;;;;;;12.88;7.65;;;;;;;;;;5088856;28;20036;-65
2023/01/22 11:28:30;;;;;;;10.32;8.05;;;;;;;;;;5080168;28;20036;-65
2023/01/22 11:30:59;;;;;;;11.20;7.35;;;;;;;;;;5079256;28;20040;-65
2023/01/22 11:33:31;;;;;;;10.57;7.55;;;;;;;;;;5064539;28;20087;-65
2023/01/22 11:36:10;;;;;;;11.88;8.48;;;;;;;;;;5073342;28;20047;-65
2023/01/22 11:38:36;;;;;;;11.27;7.53;;;;;;;;;;5079881;28;20547;-65
2023/01/22 11:41:15;;;;;;;13.93;9.55;;;;;;;;;;5073578;28;20438;-65
2023/01/22 11:43:59;;;;;;;14.43;8.43;;;;;;;;;;5071484;28;20529;-64
2023/01/22 11:46:32;;;;;;;13.50;8.82;;;;;;;;;;5079442;28;20040;-65
2023/01/22 11:48:59;;;;;;;12.32;8.50;;;;;;;;;;5080559;28;20062;-64
2023/01/22 11:51:30;;;;;;;12.70;8.55;;;;;;;;;;5076133;28;20040;-65
2023/01/22 11:53:57;;;;;;;14.75;8.68;;;;;;;;;;5086172;28;20040;-64
2023/01/22 11:56:39;;;;;;;10.45;7.38;;;;;;;;;;5092672;28;20062;-64
2023/01/22 11:59:05;;;;;;;;;;;;;;;;;;5086435;28;20036;-65
2023/01/22 12:01:45;;;;;;;14.65;8.35;;;;;;;;;;5071605;28;20294;-65
2023/01/22 12:04:17;;;;;;;13.43;8.43;;;;;;;;;;5089779;28;20032;-65
2023/01/22 12:06:53;;;;;;;9.00;6.55;;;;;;;;;;5090918;28;20089;-65
2023/01/22 12:09:25;;;;;;;13.82;7.25;;;;;;;;;;5085385;28;20040;-64
2023/01/22 12:12:03;;;;;;;13.93;8.48;;;;;;;;;;5075017;28;20068;-64
2023/01/22 12:14:35;;;;;;;11.65;7.35;;;;;;;;;;5080581;28;20032;-65
2023/01/22 12:17:01;;;;;;;12.60;8.05;;;;;;;;;;5084912;28;20032;-65
2023/01/22 12:19:59;;;;;;;11.57;7.32;;;;;;;;;;5086816;28;20506;-65
2023/01/22 12:22:25;;;;;;;15.07;8.05;;;;;;;;;;5030469;28;20105;-65
2023/01/22 12:24:57;;;;;;;10.82;7.55;;;;;;;;;;5074799;28;20398;-65
2023/01/22 12:27:23;;;;;;;10.25;6.88;;;;;;;;;;5063477;28;20119;-65
2023/01/22 12:29:49;;;;;;;11.32;7.53;;;;;;;;;;5066288;28;20174;-66
2023/01/22 12:32:17;;;;;;;9.52;6.47;;;;;;;;;;5091877;28;20043;-65
2023/01/22 12:34:59;;;;;;;9.48;6.40;;;;;;;;;;5084909;28;20082;-66
2023/01/22 12:37:33;;;;;;;11.60;6.43;;;;;;;;;;5072184;28;20032;-65
2023/01/22 12:40:05;;;;;;;10.18;7.00;;;;;;;;;;5055172;28;20040;-65
2023/01/22 12:42:57;;;;;;;11.52;7.25;;;;;;;;;;5079279;28;20150;-65
2023/01/22 12:45:27;;;;;;;11.85;6.30;;;;;;;;;;5073336;28;20047;-65
2023/01/22 12:48:03;;;;;;;12.75;7.60;;;;;;;;;;5080492;28;20082;-66
2023/01/22 12:50:29;;;;;;;14.40;8.27;;;;;;;;;;5085034;28;20080;-65
2023/01/22 12:53:19;;;;;;;13.65;7.70;;;;;;;;;;5087515;28;20044;-66
2023/01/22 12:55:56;;;;;;;13.88;9.20;;;;;;;;;;5062223;28;20399;-66
2023/01/22 12:58:23;;;;;;;10.60;7.13;;;;;;;;;;5068831;28;20047;-65
2023/01/22 13:01:00;;;;;;;10.07;6.97;;;;;;;;;;5091941;28;20490;-65
2023/01/22 13:03:28;;;;;;;11.95;7.43;;;;;;;;;;5076798;28;20043;-65
2023/01/22 13:05:54;;;;;;;12.02;7.35;;;;;;;;;;5092199;28;20051;-65
2023/01/22 13:08:20;;;;;;;11.95;6.65;;;;;;;;;;5077004;28;20418;-65
2023/01/22 13:10:57;;;;;;;12.13;7.88;;;;;;;;;;5069743;28;20044;-65
2023/01/22 13:13:26;;;;;;;17.92;9.00;;;;;;;;;;5091302;28;20139;-66
2023/01/22 13:15:54;;;;;;;10.40;7.65;;;;;;;;;;5087561;28;20092;-65
2023/01/22 13:18:29;;;;;;;11.15;8.68;;;;;;;;;;5092112;28;20059;-65
2023/01/22 13:20:55;;;;;;;14.25;7.63;;;;;;;;;;5089141;28;20054;-65
2023/01/22 13:23:21;;;;;;;12.15;6.80;;;;;;;;;;5082142;28;20028;-65
2023/01/22 13:25:53;;;;;;;13.15;8.48;;;;;;;;;;5089091;28;20031;-65
2023/01/22 13:28:18;;;;;;;;;;;;;;;;;;5086628;28;20036;-66
2023/01/22 13:30:54;;;;;;;13.13;8.40;;;;;;;;;;5087603;28;19943;-65
2023/01/22 13:33:20;;;;;;;15.30;7.18;;;;;;;;;;5086822;28;20454;-65
2023/01/22 13:35:46;;;;;;;13.07;7.97;;;;;;;;;;5090426;28;20075;-66
2023/01/22 13:38:23;;;;;;;12.00;7.93;;;;;;;;;;5064505;28;20398;-65
2023/01/22 13:40:53;;;;;;;13.00;7.75;;;;;;;;;;5072403;28;20071;-66
2023/01/22 13:43:21;;;;;;;11.55;6.97;;;;;;;;;;5084782;28;20050;-65
2023/01/22 13:45:48;;;;;;;12.63;8.38;;;;;;;;;;5092201;28;20048;-65
2023/01/22 13:48:16;;;;;;;15.88;8.70;;;;;;;;;;5092519;28;20500;-65
2023/01/22 13:50:44;;;;;;;9.90;7.35;;;;;;;;;;5091158;28;20097;-65
2023/01/22 13:53:16;;;;;;;15.25;8.23;;;;;;;;;;5087135;28;20047;-65
2023/01/22 13:55:43;;;;;;;15.73;8.77;;;;;;;;;;5070433;28;20067;-65
2023/01/22 13:58:31;;;;;;;13.80;7.72;;;;;;;;;;5091658;28;20501;-65
2023/01/22 14:00:57;;;;;;;13.75;6.97;;;;;;;;;;5083577;28;20070;-65
2023/01/22 14:03:24;;;;;;;11.32;6.82;;;;;;;;;;5081636;28;20039;-65
2023/01/22 14:05:50;;;;;;;13.68;7.63;;;;;;;;;;5090956;28;20449;-65
2023/01/22 14:08:16;;;;;;;12.60;8.35;;;;;;;;;;5091103;28;20122;-65
2023/01/22 14:10:42;;;;;;;13.60;8.57;;;;;;;;;;5090799;28;20048;-65
2023/01/22 14:13:09;;;;;;;14.73;7.93;;;;;;;;;;5091939;28;20051;-65
2023/01/22 14:15:36;;;;;;;10.52;6.68;;;;;;;;;;5090921;28;20092;-66
2023/01/22 14:18:20;;;;;;;11.77;6.60;;;;;;;;;;5091695;28;20438;-65
2023/01/22 14:20:47;;;;;;;11.95;7.63;;;;;;;;;;5091493;28;20394;-66
2023/01/22 14:23:13;;;;;;;12.20;7.28;;;;;;;;;;5091888;28;20040;-65
2023/01/22 14:25:47;;;;;;;10.68;6.55;;;;;;;;;;5082790;28;20483;-66
2023/01/22 14:28:13;;;;;;;15.07;7.97;;;;;;;;;;5088044;28;20387;-66
2023/01/22 14:30:39;;;;;;;10.25;5.65;;;;;;;;;;5074341;28;20044;-65
2023/01/22 14:33:05;;;;;;;12.48;8.13;;;;;;;;;;5053434;28;20051;-65
2023/01/22 14:35:31;;;;;;;13.70;7.05;;;;;;;;;;5085887;28;20040;-65
2023/01/22 14:37:58;;;;;;;14.38;6.97;;;;;;;;;;5090465;28;20047;-65
2023/01/22 14:40:25;;;;;;;13.57;6.28;;;;;;;;;;5082751;28;20069;-65
2023/01/22 14:42:51;;;;;;;11.93;6.60;;;;;;;;;;5051404;28;20120;-65
2023/01/22 14:45:18;;;;;;;15.35;8.45;;;;;;;;;;5059657;28;20055;-65